Time;durP1;ratioP1;P1;durP2;ratioP2;P2;SDS_P1;SDS_P2;PMS_P1;PMS_P2;Temp;Humidity;BMP_temperature;BMP_pressure;BME280_temperature;BME280_humidity;BME280_pressure;Samples;Min_cycle;Max_cycle;Signal;HPM_P1;HPM_P2
2022/08/11 00:01:12;;;;;;;3.15;1.60;;;;;;;;;;5006415;28;20439;-84
2022/08/11 00:03:44;;;;;;;4.65;1.90;;;;;;;;;;5021336;28;20033;-83
2022/08/11 00:06:13;;;;;;;2.45;1.77;;;;;;;;;;5022244;28;20022;-83
2022/08/11 00:08:39;;;;;;;2.50;1.63;;;;;;;;;;5030890;28;20092;-83
2022/08/11 00:11:11;;;;;;;2.67;1.50;;;;;;;;;;5039083;28;20026;-83
2022/08/11 00:13:47;;;;;;;;;;;;;;;;;;5041293;28;20025;-83
2022/08/11 00:16:23;;;;;;;1.80;1.52;;;;;;;;;;5032619;28;19913;-83
2022/08/11 00:18:53;;;;;;;1.90;1.45;;;;;;;;;;5022331;28;20075;-84
2022/08/11 00:21:20;;;;;;;6.07;1.60;;;;;;;;;;5040614;28;20650;-83
2022/08/11 00:23:59;;;;;;;2.25;1.33;;;;;;;;;;5033165;28;20084;-83
2022/08/11 00:26:26;;;;;;;2.42;1.63;;;;;;;;;;5027262;28;20024;-83
2022/08/11 00:28:52;;;;;;;3.05;1.73;;;;;;;;;;5021428;28;20026;-83
2022/08/11 00:31:26;;;;;;;2.92;1.63;;;;;;;;;;5035696;28;20025;-83
2022/08/11 00:33:53;;;;;;;2.03;1.70;;;;;;;;;;5040802;28;20021;-83
2022/08/11 00:36:25;;;;;;;3.38;1.48;;;;;;;;;;5035639;28;20488;-84
2022/08/11 00:38:52;;;;;;;2.20;1.75;;;;;;;;;;5002486;28;20072;-84
2022/08/11 00:41:36;;;;;;;3.30;2.00;;;;;;;;;;5026260;28;20013;-84
2022/08/11 00:44:20;;;;;;;4.05;1.85;;;;;;;;;;5010496;28;20022;-84
2022/08/11 00:47:07;;;;;;;2.85;1.42;;;;;;;;;;5011716;28;20029;-83
2022/08/11 00:50:04;;;;;;;2.90;1.63;;;;;;;;;;5022501;28;20116;-83
2022/08/11 00:52:42;;;;;;;3.35;1.65;;;;;;;;;;5002879;28;20061;-83
2022/08/11 00:55:32;;;;;;;2.03;1.80;;;;;;;;;;5003194;28;20120;-82
2022/08/11 00:58:25;;;;;;;1.63;1.50;;;;;;;;;;5002169;28;20393;-83
2022/08/11 01:01:21;;;;;;;1.65;1.55;;;;;;;;;;5029234;28;20029;-84
2022/08/11 01:04:28;;;;;;;4.03;1.85;;;;;;;;;;5017909;28;20033;-83
2022/08/11 01:07:32;;;;;;;3.20;1.77;;;;;;;;;;5030122;28;20468;-84
2022/08/11 01:10:08;;;;;;;2.00;1.67;;;;;;;;;;5012594;28;20021;-82
2022/08/11 01:13:02;;;;;;;4.47;2.13;;;;;;;;;;5019938;28;20160;-83
2022/08/11 01:16:00;;;;;;;5.28;1.58;;;;;;;;;;5027861;28;20024;-82
2022/08/11 01:19:29;;;;;;;3.90;1.98;;;;;;;;;;4998865;28;20374;-83
2022/08/11 01:22:36;;;;;;;2.53;1.80;;;;;;;;;;4946823;29;20060;-83
2022/08/11 01:25:41;;;;;;;2.88;1.80;;;;;;;;;;4946577;28;20509;-82
2022/08/11 01:28:31;;;;;;;1.85;1.73;;;;;;;;;;5034897;28;20021;-83
2022/08/11 01:31:27;;;;;;;1.80;1.58;;;;;;;;;;5005381;28;20026;-84
2022/08/11 01:34:17;;;;;;;1.77;1.52;;;;;;;;;;5021132;28;20024;-83
2022/08/11 01:37:01;;;;;;;1.60;1.50;;;;;;;;;;5029170;28;20022;-83
2022/08/11 01:39:48;;;;;;;1.45;1.35;;;;;;;;;;5034960;28;20025;-84
2022/08/11 01:45:31;;;;;;;2.53;1.50;;;;;;;;;;5021406;28;20188;-83
2022/08/11 01:48:15;;;;;;;1.67;1.40;;;;;;;;;;5005902;28;20020;-83
2022/08/11 01:51:02;;;;;;;2.75;1.63;;;;;;;;;;5034120;28;20025;-85
2022/08/11 01:53:46;;;;;;;2.97;1.85;;;;;;;;;;5030791;28;20022;-83
2022/08/11 01:56:41;;;;;;;3.53;1.83;;;;;;;;;;5001130;28;20167;-83
2022/08/11 01:59:31;;;;;;;2.13;1.73;;;;;;;;;;5025623;28;20096;-83
2022/08/11 02:02:55;;;;;;;4.68;2.00;;;;;;;;;;5011631;28;20025;-85
2022/08/11 02:05:41;;;;;;;5.32;2.08;;;;;;;;;;5001863;28;20034;-83
2022/08/11 02:08:23;;;;;;;3.80;2.13;;;;;;;;;;5026885;28;20049;-84
2022/08/11 02:11:32;;;;;;;1.73;1.60;;;;;;;;;;5038526;28;20079;-84
2022/08/11 02:14:19;;;;;;;2.28;1.70;;;;;;;;;;5039970;28;20021;-85
2022/08/11 02:16:52;;;;;;;2.50;1.88;;;;;;;;;;5029876;28;20022;-85
2022/08/11 02:25:27;;;;;;;2.28;2.00;;;;;;;;;;5020957;28;20033;-84
2022/08/11 02:28:04;;;;;;;2.03;1.83;;;;;;;;;;4988767;28;20029;-84
2022/08/11 02:30:40;;;;;;;4.05;1.80;;;;;;;;;;5032162;28;20044;-84
2022/08/11 02:33:25;;;;;;;4.13;2.00;;;;;;;;;;5038518;28;20040;-83
2022/08/11 02:36:07;;;;;;;5.50;2.25;;;;;;;;;;5040038;28;20021;-84
2022/08/11 02:38:42;;;;;;;3.35;1.95;;;;;;;;;;5016670;28;20026;-84
2022/08/11 02:44:36;;;;;;;2.45;1.98;;;;;;;;;;5032301;28;20067;-84
2022/08/11 02:47:37;;;;;;;2.28;2.08;;;;;;;;;;5024805;28;20021;-83
2022/08/11 02:50:12;;;;;;;3.50;2.20;;;;;;;;;;5022035;28;20112;-83
2022/08/11 02:52:51;;;;;;;2.90;2.00;;;;;;;;;;5038253;28;20116;-84
2022/08/11 02:55:43;;;;;;;3.30;1.90;;;;;;;;;;5039495;28;20081;-84
2022/08/11 02:58:14;;;;;;;4.43;2.08;;;;;;;;;;5038990;28;20021;-83
2022/08/11 03:00:56;;;;;;;2.42;2.00;;;;;;;;;;5025305;28;20089;-84
2022/08/11 03:03:45;;;;;;;6.53;2.23;;;;;;;;;;5017657;28;20026;-83
2022/08/11 03:06:38;;;;;;;3.63;2.08;;;;;;;;;;5031538;28;20736;-83
2022/08/11 03:09:16;;;;;;;2.65;2.00;;;;;;;;;;5019932;28;20033;-83
2022/08/11 03:18:27;;;;;;;2.00;1.90;;;;;;;;;;5004513;28;20396;-84
2022/08/11 03:20:58;;;;;;;2.15;1.95;;;;;;;;;;4985776;28;20038;-84
2022/08/11 03:23:28;;;;;;;4.20;2.30;;;;;;;;;;5010434;28;20029;-84
2022/08/11 03:26:04;;;;;;;2.15;1.90;;;;;;;;;;5023792;28;20030;-83
2022/08/11 03:29:05;;;;;;;2.03;1.77;;;;;;;;;;5020639;28;20026;-83
2022/08/11 03:31:35;;;;;;;3.20;1.92;;;;;;;;;;4970709;28;20073;-82
2022/08/11 03:34:12;;;;;;;5.72;2.53;;;;;;;;;;5031813;28;20048;-84
2022/08/11 03:36:45;;;;;;;2.92;2.08;;;;;;;;;;5038334;28;20025;-84
2022/08/11 03:39:32;;;;;;;4.90;1.95;;;;;;;;;;5044278;28;20324;-84
2022/08/11 03:42:05;;;;;;;3.83;2.63;;;;;;;;;;5045730;28;20026;-84
2022/08/11 03:44:41;;;;;;;3.58;2.20;;;;;;;;;;5036867;28;20024;-84
2022/08/11 03:47:23;;;;;;;3.58;2.15;;;;;;;;;;5030854;28;20046;-84
2022/08/11 03:50:05;;;;;;;4.28;2.17;;;;;;;;;;5025887;28;20053;-84
2022/08/11 03:52:49;;;;;;;;;;;;;;;;;;5026258;28;20053;-84
2022/08/11 03:55:19;;;;;;;2.88;2.00;;;;;;;;;;5023375;28;19916;-84
2022/08/11 03:58:04;;;;;;;8.70;2.08;;;;;;;;;;5006293;28;20018;-84
2022/08/11 04:00:44;;;;;;;3.92;2.40;;;;;;;;;;5031733;28;20085;-83
2022/08/11 04:03:37;;;;;;;3.92;2.20;;;;;;;;;;5031044;28;20036;-83
2022/08/11 04:06:28;;;;;;;6.40;2.47;;;;;;;;;;5041771;28;20025;-83
2022/08/11 04:09:18;;;;;;;3.03;2.25;;;;;;;;;;5016382;28;20376;-84
2022/08/11 04:11:53;;;;;;;3.08;2.10;;;;;;;;;;5041330;28;20029;-84
2022/08/11 04:17:49;;;;;;;4.25;2.50;;;;;;;;;;5036257;28;20036;-84
2022/08/11 04:20:23;;;;;;;2.10;1.90;;;;;;;;;;5042175;28;20478;-83
2022/08/11 04:23:23;;;;;;;6.43;2.58;;;;;;;;;;5040383;28;20066;-83
2022/08/11 04:26:32;;;;;;;3.88;2.92;;;;;;;;;;5028430;28;20080;-84
2022/08/11 04:29:48;;;;;;;2.30;2.10;;;;;;;;;;5015495;28;20033;-83
2022/08/11 04:32:42;;;;;;;5.18;2.40;;;;;;;;;;4997147;28;20040;-84
2022/08/11 04:35:31;;;;;;;5.72;2.60;;;;;;;;;;5042039;28;20027;-83
2022/08/11 04:38:32;;;;;;;4.53;2.53;;;;;;;;;;5029077;28;20052;-84
2022/08/11 04:41:21;;;;;;;7.40;2.45;;;;;;;;;;4999869;28;20029;-84
2022/08/11 04:44:22;;;;;;;3.28;2.53;;;;;;;;;;5042155;28;20472;-84
2022/08/11 04:47:06;;;;;;;5.00;2.13;;;;;;;;;;5033241;28;20544;-84
2022/08/11 05:02:14;;;;;;;6.70;2.50;;;;;;;;;;5027483;28;20033;-83
2022/08/11 05:07:55;;;;;;;4.10;2.42;;;;;;;;;;5018704;28;20049;-82
2022/08/11 05:10:57;;;;;;;4.97;2.53;;;;;;;;;;5027677;28;20030;-83
2022/08/11 05:37:09;;;;;;;3.92;2.25;;;;;;;;;;4993222;28;20060;-81
2022/08/11 05:56:33;;;;;;;9.85;2.35;;;;;;;;;;5023410;28;20099;-83
2022/08/11 05:58:59;;;;;;;2.20;2.00;;;;;;;;;;5016093;28;20510;-82
2022/08/11 06:01:29;;;;;;;2.42;2.22;;;;;;;;;;5016948;28;20055;-82
2022/08/11 06:04:15;;;;;;;3.40;2.63;;;;;;;;;;5014458;28;20037;-80
2022/08/11 06:07:07;;;;;;;2.58;1.95;;;;;;;;;;5016602;28;20021;-80
2022/08/11 06:09:46;;;;;;;4.95;2.47;;;;;;;;;;5009348;28;20057;-81
2022/08/11 06:12:22;;;;;;;5.95;2.60;;;;;;;;;;5029496;28;20036;-81
2022/08/11 06:14:52;;;;;;;3.40;2.17;;;;;;;;;;5032299;28;20392;-80
2022/08/11 06:17:32;;;;;;;4.18;2.10;;;;;;;;;;5026085;28;20383;-83
2022/08/11 06:20:06;;;;;;;2.95;2.35;;;;;;;;;;5024334;28;20017;-83
2022/08/11 06:22:32;;;;;;;2.45;2.00;;;;;;;;;;5017656;28;20075;-82
2022/08/11 06:25:01;;;;;;;2.45;2.08;;;;;;;;;;5006352;28;20109;-82
2022/08/11 06:27:30;;;;;;;5.20;2.33;;;;;;;;;;5034403;28;20016;-81
2022/08/11 06:29:57;;;;;;;8.70;2.58;;;;;;;;;;5047048;28;20009;-81
2022/08/11 06:32:27;;;;;;;2.88;1.98;;;;;;;;;;5052749;28;20018;-82
2022/08/11 06:35:10;;;;;;;3.08;1.90;;;;;;;;;;5043428;28;20046;-81
2022/08/11 06:37:54;;;;;;;4.55;2.22;;;;;;;;;;5035437;28;20028;-81
2022/08/11 06:43:57;;;;;;;2.00;1.80;;;;;;;;;;5042980;28;20136;-82
2022/08/11 06:46:31;;;;;;;2.55;2.00;;;;;;;;;;5046494;28;20264;-81
2022/08/11 06:49:01;;;;;;;3.25;2.03;;;;;;;;;;5054572;28;20037;-83
2022/08/11 06:51:27;;;;;;;4.22;2.22;;;;;;;;;;5055415;28;20025;-82
2022/08/11 06:53:58;;;;;;;5.57;1.90;;;;;;;;;;5052643;28;20439;-82
2022/08/11 07:02:06;;;;;;;2.72;2.05;;;;;;;;;;5053861;28;20054;-82
2022/08/11 07:04:47;;;;;;;5.05;2.33;;;;;;;;;;5053917;28;20025;-81
2022/08/11 07:16:29;;;;;;;3.83;2.20;;;;;;;;;;5032125;28;20045;-83
2022/08/11 07:30:09;;;;;;;3.88;2.20;;;;;;;;;;5018860;28;20109;-83
2022/08/11 07:32:49;;;;;;;5.72;1.83;;;;;;;;;;5028531;28;20044;-82
2022/08/11 07:35:19;;;;;;;5.85;3.25;;;;;;;;;;5038124;28;20341;-84
2022/08/11 07:37:49;;;;;;;4.05;2.20;;;;;;;;;;5027123;28;20034;-82
2022/08/11 07:40:21;;;;;;;2.53;1.93;;;;;;;;;;5027684;28;20025;-82
2022/08/11 07:42:48;;;;;;;3.45;1.80;;;;;;;;;;5021284;28;20460;-82
2022/08/11 07:53:29;;;;;;;3.65;2.20;;;;;;;;;;4998970;28;20551;-82
2022/08/11 07:55:57;;;;;;;6.97;2.20;;;;;;;;;;4999080;28;20058;-82
2022/08/11 08:17:51;;;;;;;2.85;1.90;;;;;;;;;;5019770;28;20044;-84
2022/08/11 08:20:19;;;;;;;2.88;1.83;;;;;;;;;;5018250;28;20030;-82
2022/08/11 08:23:06;;;;;;;4.13;2.28;;;;;;;;;;5018840;28;20111;-83
2022/08/11 08:25:35;;;;;;;4.68;2.10;;;;;;;;;;5014801;28;20034;-83
2022/08/11 08:28:04;;;;;;;2.45;1.77;;;;;;;;;;5017587;28;20116;-83
2022/08/11 08:33:29;;;;;;;4.30;2.10;;;;;;;;;;5032591;28;20502;-83
2022/08/11 08:36:15;;;;;;;5.00;1.90;;;;;;;;;;5037638;28;20033;-83
2022/08/11 08:38:51;;;;;;;2.97;1.85;;;;;;;;;;5013371;28;20459;-83
2022/08/11 08:41:23;;;;;;;3.10;1.90;;;;;;;;;;5024228;28;20051;-83
2022/08/11 08:43:52;;;;;;;1.80;1.70;;;;;;;;;;5037501;28;20030;-81
2022/08/11 08:46:24;;;;;;;6.85;1.85;;;;;;;;;;5028912;28;20467;-81
2022/08/11 08:48:50;;;;;;;4.70;1.83;;;;;;;;;;5036098;28;20105;-81
2022/08/11 08:51:34;;;;;;;1.90;1.80;;;;;;;;;;5036940;28;20063;-82
2022/08/11 08:54:05;;;;;;;2.42;1.85;;;;;;;;;;5036889;28;20472;-80
2022/08/11 08:56:33;;;;;;;2.03;1.73;;;;;;;;;;5037179;28;20033;-83
2022/08/11 08:59:01;;;;;;;2.25;1.92;;;;;;;;;;5027102;28;20028;-82
2022/08/11 09:01:34;;;;;;;5.78;1.98;;;;;;;;;;5017539;28;20460;-81
2022/08/11 09:04:02;;;;;;;2.72;1.80;;;;;;;;;;5017540;28;20075;-82
2022/08/11 09:06:31;;;;;;;4.22;1.88;;;;;;;;;;5017849;28;20018;-85
2022/08/11 09:08:57;;;;;;;2.40;1.98;;;;;;;;;;5017845;28;20024;-82
2022/08/11 09:14:08;;;;;;;4.22;1.90;;;;;;;;;;5030420;28;20044;-82
2022/08/11 09:16:35;;;;;;;3.95;1.80;;;;;;;;;;5020461;28;20117;-82
2022/08/11 09:19:01;;;;;;;1.92;1.60;;;;;;;;;;5025226;28;20116;-82
2022/08/11 09:21:28;;;;;;;2.15;1.65;;;;;;;;;;5017983;28;20420;-83
2022/08/11 09:26:58;;;;;;;3.00;1.75;;;;;;;;;;5029056;28;20020;-82
2022/08/11 09:29:25;;;;;;;3.60;1.70;;;;;;;;;;5033085;28;20048;-83
2022/08/11 09:31:52;;;;;;;2.63;1.75;;;;;;;;;;5037227;28;20089;-82
2022/08/11 09:34:18;;;;;;;3.97;1.50;;;;;;;;;;5034233;28;20148;-83
2022/08/11 09:42:16;;;;;;;2.75;1.45;;;;;;;;;;5033552;28;20060;-81
2022/08/11 09:44:47;;;;;;;2.15;1.58;;;;;;;;;;5036242;28;20083;-83
2022/08/11 09:47:19;;;;;;;2.80;1.73;;;;;;;;;;5021102;28;20022;-84
2022/08/11 09:49:45;;;;;;;2.25;1.63;;;;;;;;;;5018038;28;20025;-84
2022/08/11 09:52:13;;;;;;;1.60;1.45;;;;;;;;;;5029885;28;20400;-82
2022/08/11 09:54:40;;;;;;;3.00;1.60;;;;;;;;;;5025042;28;20029;-84
2022/08/11 09:59:52;;;;;;;3.90;1.40;;;;;;;;;;5015889;28;20423;-84
2022/08/11 10:02:22;;;;;;;2.92;1.90;;;;;;;;;;5016048;28;20032;-84
2022/08/11 10:04:50;;;;;;;3.22;1.90;;;;;;;;;;5017197;28;20034;-84
2022/08/11 10:07:18;;;;;;;4.38;1.50;;;;;;;;;;5006352;28;20121;-84
2022/08/11 10:10:01;;;;;;;1.58;1.48;;;;;;;;;;5028541;28;20044;-83
2022/08/11 10:12:34;;;;;;;2.17;1.52;;;;;;;;;;5025466;28;20022;-85
2022/08/11 10:18:41;;;;;;;2.65;1.60;;;;;;;;;;5017854;28;20037;-86
2022/08/11 10:21:14;;;;;;;1.77;1.55;;;;;;;;;;5035760;28;20625;-85
2022/08/11 10:34:47;;;;;;;3.75;1.60;;;;;;;;;;5014551;28;20033;-85
2022/08/11 10:37:14;;;;;;;2.97;1.40;;;;;;;;;;5021639;28;20025;-85
2022/08/11 10:39:40;;;;;;;4.90;1.60;;;;;;;;;;5027727;28;20253;-83
2022/08/11 10:44:56;;;;;;;2.67;1.45;;;;;;;;;;5032628;28;20056;-85
2022/08/11 10:47:35;;;;;;;1.67;1.38;;;;;;;;;;5030518;28;20068;-84
2022/08/11 10:58:50;;;;;;;2.08;1.52;;;;;;;;;;5001839;28;20045;-83
2022/08/11 11:01:33;;;;;;;3.10;1.48;;;;;;;;;;5000945;28;20022;-84
2022/08/11 11:04:09;;;;;;;2.45;1.42;;;;;;;;;;5008368;28;20041;-82
2022/08/11 11:06:59;;;;;;;1.98;1.23;;;;;;;;;;5022189;28;20022;-86
2022/08/11 11:09:31;;;;;;;3.20;1.50;;;;;;;;;;5023989;28;20052;-85
2022/08/11 11:17:55;;;;;;;1.60;1.50;;;;;;;;;;5037413;28;20036;-85
2022/08/11 11:20:32;;;;;;;2.85;1.45;;;;;;;;;;5044975;28;20068;-85
2022/08/11 11:23:04;;;;;;;1.83;1.55;;;;;;;;;;5026660;28;20029;-85
2022/08/11 11:26:11;;;;;;;2.30;1.52;;;;;;;;;;5032478;28;20036;-84
2022/08/11 11:28:42;;;;;;;2.80;1.50;;;;;;;;;;5042107;28;20005;-84
2022/08/11 11:31:22;;;;;;;1.58;1.42;;;;;;;;;;5045267;28;20025;-84
2022/08/11 11:34:11;;;;;;;1.50;1.40;;;;;;;;;;5045166;28;20492;-83
2022/08/11 11:36:49;;;;;;;3.10;1.63;;;;;;;;;;5044507;28;20030;-84
2022/08/11 11:39:26;;;;;;;4.35;1.77;;;;;;;;;;5024830;28;20014;-85
2022/08/11 11:41:58;;;;;;;2.90;1.60;;;;;;;;;;5011947;28;20029;-83
2022/08/11 11:44:24;;;;;;;4.93;1.55;;;;;;;;;;5036640;28;20021;-84
2022/08/11 11:46:51;;;;;;;3.97;1.67;;;;;;;;;;5032024;28;20030;-84
2022/08/11 11:49:18;;;;;;;1.80;1.70;;;;;;;;;;5029360;28;20021;-85
2022/08/11 11:51:46;;;;;;;3.58;1.70;;;;;;;;;;5026423;28;20036;-85
2022/08/11 11:54:16;;;;;;;2.85;1.52;;;;;;;;;;5028741;28;20036;-83
2022/08/11 11:56:42;;;;;;;1.70;1.50;;;;;;;;;;5027704;28;20048;-84
2022/08/11 12:02:02;;;;;;;1.50;1.40;;;;;;;;;;5024482;28;20037;-83
2022/08/11 12:04:28;;;;;;;2.42;1.65;;;;;;;;;;5040621;28;20025;-84
2022/08/11 12:08:08;;;;;;;2.00;1.40;;;;;;;;;;5044189;28;20010;-83
2022/08/11 12:09:40;;;;;;;2.10;1.52;;;;;;;;;;5037774;28;20051;-82
2022/08/11 12:14:52;;;;;;;2.28;1.60;;;;;;;;;;5039240;28;20084;-83
2022/08/11 12:17:18;;;;;;;2.22;1.30;;;;;;;;;;5033128;28;20080;-83
2022/08/11 12:19:44;;;;;;;2.58;1.10;;;;;;;;;;5026221;28;20734;-83
2022/08/11 12:27:39;;;;;;;2.17;1.50;;;;;;;;;;5027840;28;20096;-83
2022/08/11 12:30:07;;;;;;;1.85;1.42;;;;;;;;;;5035872;28;20022;-85
2022/08/11 12:32:35;;;;;;;2.35;1.40;;;;;;;;;;5026717;28;20021;-82
2022/08/11 12:35:01;;;;;;;5.38;1.60;;;;;;;;;;5048113;28;20031;-84
2022/08/11 12:37:31;;;;;;;1.58;1.48;;;;;;;;;;5038926;28;20036;-85
2022/08/11 12:45:39;;;;;;;1.98;1.40;;;;;;;;;;5039297;28;20491;-85
2022/08/11 12:54:06;;;;;;;1.20;1.20;;;;;;;;;;5055289;28;20032;-84
2022/08/11 13:05:01;;;;;;;1.70;1.60;;;;;;;;;;5052647;28;20052;-84
2022/08/11 13:07:29;;;;;;;6.07;1.70;;;;;;;;;;5043764;28;20021;-83
2022/08/11 13:09:56;;;;;;;2.65;1.52;;;;;;;;;;5045670;28;20033;-84
2022/08/11 13:15:14;;;;;;;3.75;1.48;;;;;;;;;;5031943;28;20277;-84
2022/08/11 13:17:41;;;;;;;6.53;1.42;;;;;;;;;;5045351;28;20025;-84
2022/08/11 13:20:12;;;;;;;2.53;1.20;;;;;;;;;;5041936;28;20017;-84
2022/08/11 13:22:40;;;;;;;1.42;1.23;;;;;;;;;;5011140;28;20045;-84
2022/08/11 13:25:06;;;;;;;2.70;1.50;;;;;;;;;;5027054;28;20080;-83
2022/08/11 13:27:32;;;;;;;1.92;1.40;;;;;;;;;;5026138;28;20067;-84
2022/08/11 13:32:43;;;;;;;4.55;1.25;;;;;;;;;;5040109;28;20108;-83
2022/08/11 13:35:13;;;;;;;2.00;1.40;;;;;;;;;;5040557;28;20017;-83
2022/08/11 13:37:41;;;;;;;1.45;1.35;;;;;;;;;;5040523;28;20054;-84
2022/08/11 13:40:08;;;;;;;2.85;1.60;;;;;;;;;;5032623;28;20022;-84
2022/08/11 13:42:35;;;;;;;2.33;1.15;;;;;;;;;;5026460;28;20062;-84
2022/08/11 13:45:01;;;;;;;3.08;1.48;;;;;;;;;;5045799;28;20028;-83
2022/08/11 13:47:27;;;;;;;2.38;0.98;;;;;;;;;;5045998;28;20084;-84
2022/08/11 13:49:53;;;;;;;3.78;1.10;;;;;;;;;;5046771;28;20025;-83
2022/08/11 13:52:19;;;;;;;1.83;1.40;;;;;;;;;;5044653;28;20033;-84
2022/08/11 13:54:49;;;;;;;1.40;1.27;;;;;;;;;;5045772;28;20021;-84
2022/08/11 13:58:16;;;;;;;2.55;1.20;;;;;;;;;;5028502;28;20060;-83
2022/08/11 14:00:57;;;;;;;3.45;1.40;;;;;;;;;;5004800;28;20034;-84
2022/08/11 14:03:26;;;;;;;4.18;1.10;;;;;;;;;;5004862;28;20046;-84
2022/08/11 14:05:55;;;;;;;1.70;1.48;;;;;;;;;;5005583;28;20041;-83
2022/08/11 14:08:26;;;;;;;1.40;1.30;;;;;;;;;;5025545;28;20017;-84
2022/08/11 14:13:36;;;;;;;;;;;;;;;;;;5038341;28;20129;-85
2022/08/11 14:13:42;;;;;;;1.13;1.05;;;;;;;;;;5046549;28;19909;-86
2022/08/11 14:16:14;;;;;;;3.67;1.45;;;;;;;;;;5017839;28;20037;-85
2022/08/11 14:18:44;;;;;;;1.83;1.17;;;;;;;;;;5044788;28;20025;-84
2022/08/11 14:23:58;;;;;;;2.20;1.50;;;;;;;;;;5046067;28;20078;-84
2022/08/11 14:26:25;;;;;;;3.33;1.60;;;;;;;;;;5045438;28;20506;-83
2022/08/11 14:29:13;;;;;;;1.40;1.30;;;;;;;;;;5035424;28;20029;-83
2022/08/11 14:31:49;;;;;;;2.72;1.50;;;;;;;;;;5042767;28;20014;-84
2022/08/11 14:34:19;;;;;;;2.05;1.30;;;;;;;;;;5045537;28;20021;-84
2022/08/11 14:36:50;;;;;;;3.53;1.42;;;;;;;;;;5045624;28;20022;-84
2022/08/11 14:39:17;;;;;;;3.03;1.63;;;;;;;;;;5025283;28;20026;-83
2022/08/11 14:47:18;;;;;;;1.40;1.30;;;;;;;;;;5032951;28;20049;-83
2022/08/11 14:49:45;;;;;;;2.85;1.20;;;;;;;;;;5026594;28;20018;-84
2022/08/11 14:52:15;;;;;;;1.85;1.60;;;;;;;;;;5025393;28;20030;-84
2022/08/11 14:57:28;;;;;;;2.95;1.20;;;;;;;;;;5025165;28;20025;-83
2022/08/11 14:59:56;;;;;;;3.40;1.20;;;;;;;;;;5026252;28;20064;-84
2022/08/11 15:05:07;;;;;;;4.60;1.73;;;;;;;;;;5027864;28;20280;-84
2022/08/11 15:07:33;;;;;;;1.20;1.10;;;;;;;;;;5028377;28;20432;-84
2022/08/11 15:10:02;;;;;;;1.23;1.13;;;;;;;;;;5032530;28;20049;-84
2022/08/11 15:12:29;;;;;;;4.53;1.33;;;;;;;;;;5028551;28;20029;-84
2022/08/11 15:17:42;;;;;;;3.22;1.55;;;;;;;;;;5042394;28;20029;-84
2022/08/11 15:25:51;;;;;;;1.70;1.60;;;;;;;;;;5049905;28;20175;-85
2022/08/11 15:39:28;;;;;;;2.42;1.40;;;;;;;;;;5032804;28;20025;-83
2022/08/11 15:47:41;;;;;;;1.85;1.40;;;;;;;;;;5031715;28;20053;-83
2022/08/11 15:50:12;;;;;;;8.05;4.68;;;;;;;;;;5028997;28;20388;-82
2022/08/11 15:52:55;;;;;;;3.15;1.98;;;;;;;;;;5028520;28;20029;-84
2022/08/11 15:55:22;;;;;;;3.65;1.30;;;;;;;;;;5026999;28;20084;-83
2022/08/11 16:06:09;;;;;;;1.40;1.30;;;;;;;;;;5029221;28;20032;-83
2022/08/11 16:08:39;;;;;;;2.78;1.40;;;;;;;;;;5035828;28;20013;-83
2022/08/11 16:11:06;;;;;;;1.13;1.10;;;;;;;;;;5041246;28;20017;-84
2022/08/11 16:16:15;;;;;;;3.88;1.50;;;;;;;;;;5042935;28;20026;-84
2022/08/11 16:18:55;;;;;;;1.52;1.30;;;;;;;;;;5027351;28;20049;-82
2022/08/11 16:21:26;;;;;;;2.47;1.17;;;;;;;;;;5028228;28;20026;-84
2022/08/11 16:23:53;;;;;;;;;;;;;;;;;;5029506;28;20025;-82
2022/08/11 16:26:22;;;;;;;3.17;1.40;;;;;;;;;;5021892;28;20008;-83
2022/08/11 16:28:50;;;;;;;1.50;1.40;;;;;;;;;;5016833;28;20387;-82
2022/08/11 16:31:17;;;;;;;2.17;1.40;;;;;;;;;;5032445;28;20459;-83
2022/08/11 16:33:46;;;;;;;5.35;1.45;;;;;;;;;;5037649;28;20025;-82
2022/08/11 16:38:58;;;;;;;1.75;1.50;;;;;;;;;;5021554;28;20511;-82
2022/08/11 16:47:03;;;;;;;4.65;1.30;;;;;;;;;;5022527;28;20056;-82
2022/08/11 16:49:35;;;;;;;1.33;1.17;;;;;;;;;;5037625;28;20028;-82
2022/08/11 16:52:06;;;;;;;1.85;1.25;;;;;;;;;;5038118;28;20195;-84
2022/08/11 16:54:33;;;;;;;;;;;;;;;;;;5039237;28;20035;-83
2022/08/11 16:59:12;;;;;;;2.72;1.50;;;;;;;;;;5038158;28;19936;-84
2022/08/11 16:59:48;;;;;;;2.53;1.50;;;;;;;;;;5027372;28;20037;-83
2022/08/11 17:13:43;;;;;;;3.15;1.58;;;;;;;;;;5025442;28;20035;-86
2022/08/11 17:16:11;;;;;;;1.42;1.33;;;;;;;;;;5029860;28;20071;-86
2022/08/11 17:19:07;;;;;;;2.60;1.55;;;;;;;;;;5035237;28;20057;-83
2022/08/11 17:23:45;;;;;;;2.33;1.30;;;;;;;;;;5036451;28;20030;-83
2022/08/11 17:24:26;;;;;;;;;;;;;;;;;;5037703;28;20437;-80
2022/08/11 17:26:57;;;;;;;1.77;1.35;;;;;;;;;;5025185;28;19916;-83
2022/08/11 17:29:25;;;;;;;4.22;1.58;;;;;;;;;;5026164;28;20029;-83
2022/08/11 17:37:24;;;;;;;1.45;1.30;;;;;;;;;;5017980;28;20073;-85
2022/08/11 17:39:51;;;;;;;4.00;1.55;;;;;;;;;;5022523;28;20029;-85
2022/08/11 17:50:35;;;;;;;3.78;1.65;;;;;;;;;;5019291;28;20060;-83
2022/08/11 18:01:18;;;;;;;2.70;1.27;;;;;;;;;;5024328;28;20622;-85
2022/08/11 18:03:44;;;;;;;1.40;1.30;;;;;;;;;;5019316;28;20040;-83
2022/08/11 18:06:13;;;;;;;2.25;1.45;;;;;;;;;;5038978;28;20051;-84
